createdAt,value
2019-01-28T00:00:36.515Z,0.40
2019-01-28T00:01:43.106Z,0.60
2019-01-28T00:02:47.759Z,0.70
2019-01-28T00:03:52.354Z,0.70
2019-01-28T00:04:59.532Z,0.75
2019-01-28T00:06:04.194Z,0.60
2019-01-28T00:07:08.699Z,0.80
2019-01-28T00:08:13.221Z,0.60
2019-01-28T00:09:17.719Z,0.60
2019-01-28T00:10:22.307Z,0.53
2019-01-28T00:11:26.990Z,0.60
2019-01-28T00:12:31.478Z,0.50
2019-01-28T00:13:37.612Z,1.17
2019-01-28T00:14:42.090Z,0.60
2019-01-28T00:15:49.264Z,0.70
2019-01-28T00:16:53.779Z,0.70
2019-01-28T00:17:58.351Z,0.80
2019-01-28T00:19:03.517Z,0.50
2019-01-28T00:20:08.240Z,0.78
2019-01-28T00:21:12.876Z,0.70
2019-01-28T00:22:17.466Z,0.60
2019-01-28T00:23:21.974Z,0.70
2019-01-28T00:24:26.490Z,0.70
2019-01-28T00:25:32.400Z,0.60
2019-01-28T00:26:37.177Z,0.60
2019-01-28T00:27:42.003Z,0.70
2019-01-28T00:28:46.568Z,0.60
2019-01-28T00:29:51.087Z,0.80
2019-01-28T00:30:55.556Z,0.60
2019-01-28T00:32:00.070Z,0.55
2019-01-28T00:33:05.448Z,0.60
2019-01-28T00:34:09.962Z,0.57
2019-01-28T00:35:14.499Z,0.40
2019-01-28T00:36:19.099Z,0.53
2019-01-28T00:37:23.699Z,0.63
2019-01-28T00:38:28.248Z,0.53
2019-01-28T00:39:32.775Z,0.40
2019-01-28T00:40:38.597Z,0.47
2019-01-28T00:41:44.183Z,0.37
2019-01-28T00:42:50.301Z,0.60
2019-01-28T00:43:54.876Z,0.50
2019-01-28T00:44:59.420Z,0.40
2019-01-28T00:46:04.026Z,0.40
2019-01-28T00:47:08.618Z,0.50
2019-01-28T00:48:13.101Z,0.43
2019-01-28T00:49:19.837Z,0.40
2019-01-28T00:50:24.351Z,0.30
2019-01-28T00:51:29.525Z,0.50
2019-01-28T00:52:34.994Z,0.30
2019-01-28T00:53:39.454Z,0.40
2019-01-28T00:54:43.997Z,0.50
2019-01-28T00:55:49.112Z,0.40
2019-01-28T00:56:53.616Z,0.47
2019-01-28T00:57:59.769Z,0.40
2019-01-28T00:59:04.316Z,0.50
2019-01-28T01:00:14.814Z,0.40
2019-01-28T01:01:21.838Z,0.50
2019-01-28T01:02:27.575Z,0.40
2019-01-28T01:03:32.054Z,0.40
2019-01-28T01:04:36.551Z,0.40
2019-01-28T01:05:41.255Z,0.47
2019-01-28T01:06:45.764Z,0.37
2019-01-28T01:07:54.328Z,0.40
2019-01-28T01:08:58.097Z,0.40
2019-01-28T01:10:05.986Z,0.47
2019-01-28T01:11:10.504Z,0.40
2019-01-28T01:12:15.072Z,0.55
2019-01-28T01:13:19.629Z,0.30
2019-01-28T01:14:24.129Z,0.40
2019-01-28T01:15:28.674Z,0.57
2019-01-28T01:16:33.165Z,0.50
2019-01-28T01:17:37.762Z,0.40
2019-01-28T01:18:43.340Z,0.40
2019-01-28T01:19:47.913Z,0.50
2019-01-28T01:20:52.399Z,0.40
2019-01-28T01:21:56.914Z,0.40
2019-01-28T01:23:01.417Z,0.40
2019-01-28T01:24:05.984Z,0.50
2019-01-28T01:25:10.832Z,0.60
2019-01-28T01:26:17.615Z,0.40
2019-01-28T01:27:22.961Z,0.40
2019-01-28T01:28:27.542Z,0.40
2019-01-28T01:29:32.073Z,0.50
2019-01-28T01:30:36.588Z,0.47
2019-01-28T01:31:41.133Z,0.40
2019-01-28T01:32:45.988Z,0.40
2019-01-28T01:33:50.576Z,0.50
2019-01-28T01:34:55.106Z,0.33
2019-01-28T01:35:59.650Z,0.42
2019-01-28T01:37:04.185Z,0.50
2019-01-28T01:38:08.711Z,0.37
2019-01-28T01:39:13.266Z,0.50
2019-01-28T01:40:17.992Z,0.40
2019-01-28T01:41:24.054Z,0.50
2019-01-28T01:42:28.598Z,0.30
2019-01-28T01:43:33.078Z,0.40
2019-01-28T01:44:37.611Z,0.33
2019-01-28T01:45:42.110Z,0.85
2019-01-28T01:46:46.595Z,0.70
2019-01-28T01:47:51.169Z,0.40
2019-01-28T01:48:55.702Z,0.93
2019-01-28T01:50:00.344Z,0.97
2019-01-28T01:51:04.844Z,0.60
2019-01-28T01:52:09.316Z,0.63
2019-01-28T01:53:13.800Z,0.63
2019-01-28T01:54:18.438Z,0.60
2019-01-28T01:55:22.954Z,0.47
2019-01-28T01:56:27.466Z,0.57
2019-01-28T01:57:32.000Z,0.60
2019-01-28T01:58:36.524Z,0.60
2019-01-28T01:59:41.119Z,0.60
2019-01-28T02:00:45.680Z,0.45
2019-01-28T02:01:50.194Z,0.60
2019-01-28T02:02:54.717Z,0.53
2019-01-28T02:03:59.775Z,0.57
2019-01-28T02:05:06.087Z,0.60
2019-01-28T02:06:10.696Z,0.70
2019-01-28T02:07:15.206Z,0.80
2019-01-28T02:08:19.731Z,0.53
2019-01-28T02:09:24.219Z,0.60
2019-01-28T02:10:28.717Z,0.50
2019-01-28T02:11:33.236Z,0.60
2019-01-28T02:12:37.721Z,0.40
2019-01-28T02:13:42.201Z,0.60
2019-01-28T02:14:47.307Z,0.50
2019-01-28T02:15:52.992Z,0.67
2019-01-28T02:16:58.589Z,0.60
2019-01-28T02:18:03.120Z,0.98
2019-01-28T02:19:07.651Z,0.57
2019-01-28T02:20:12.680Z,0.50
2019-01-28T02:21:18.257Z,0.60
2019-01-28T02:22:24.411Z,0.53
2019-01-28T02:23:28.903Z,0.60
2019-01-28T02:24:33.425Z,1.02
2019-01-28T02:25:37.919Z,0.60
2019-01-28T02:26:42.475Z,0.60
2019-01-28T02:27:47.096Z,0.83
2019-01-28T02:28:51.641Z,0.60
2019-01-28T02:29:56.153Z,0.70
2019-01-28T02:31:00.634Z,0.70
2019-01-28T02:32:05.210Z,0.73
2019-01-28T02:33:11.021Z,0.90
2019-01-28T02:34:15.535Z,0.60
2019-01-28T02:35:20.029Z,1.03
2019-01-28T02:36:24.506Z,1.67
2019-01-28T02:37:29.706Z,0.70
2019-01-28T02:38:34.214Z,0.55
2019-01-28T02:39:38.733Z,0.60
2019-01-28T02:40:43.268Z,0.70
2019-01-28T02:41:47.791Z,0.80
2019-01-28T02:42:52.289Z,0.80
2019-01-28T02:43:56.806Z,0.60
2019-01-28T02:45:01.276Z,1.13
2019-01-28T02:46:05.821Z,0.90
2019-01-28T02:47:10.306Z,1.33
2019-01-28T02:48:14.778Z,0.77
2019-01-28T02:49:19.272Z,1.03
2019-01-28T02:50:23.838Z,1.25
2019-01-28T02:51:28.335Z,0.53
2019-01-28T02:52:32.857Z,0.75
2019-01-28T02:53:37.338Z,0.70
2019-01-28T02:54:41.831Z,1.27
2019-01-28T02:55:46.345Z,0.83
2019-01-28T02:56:50.849Z,0.53
2019-01-28T02:57:55.347Z,0.60
2019-01-28T02:58:59.837Z,0.50
2019-01-28T03:00:07.532Z,0.62
2019-01-28T03:01:12.054Z,0.78
2019-01-28T03:02:16.554Z,0.40
2019-01-28T03:03:21.029Z,0.70
2019-01-28T03:04:25.758Z,0.80
2019-01-28T03:05:30.583Z,0.50
2019-01-28T03:06:35.204Z,0.40
2019-01-28T03:07:39.693Z,0.60
2019-01-28T03:08:44.193Z,0.50
2019-01-28T03:09:48.662Z,0.47
2019-01-28T03:10:54.528Z,0.42
2019-01-28T03:11:59.034Z,0.60
2019-01-28T03:13:03.634Z,0.70
2019-01-28T03:14:08.336Z,0.50
2019-01-28T03:15:13.088Z,0.50
2019-01-28T03:16:17.731Z,0.50
2019-01-28T03:17:22.237Z,0.43
2019-01-28T03:18:26.862Z,0.50
2019-01-28T03:19:31.388Z,0.60
2019-01-28T03:20:35.897Z,0.50
2019-01-28T03:21:40.422Z,0.65
2019-01-28T03:22:45.202Z,0.50
2019-01-28T03:23:49.784Z,0.70
2019-01-28T03:24:54.286Z,0.57
2019-01-28T03:25:58.897Z,0.40
2019-01-28T03:27:03.467Z,0.60
2019-01-28T03:28:08.035Z,0.60
2019-01-28T03:29:12.496Z,0.50
2019-01-28T03:30:19.294Z,0.50
2019-01-28T03:31:23.882Z,0.50
2019-01-28T03:32:28.429Z,0.63
2019-01-28T03:33:32.965Z,0.40
2019-01-28T03:34:37.527Z,0.80
2019-01-28T03:35:42.123Z,0.73
2019-01-28T03:36:48.152Z,0.60
2019-01-28T03:37:52.654Z,0.60
2019-01-28T03:38:58.104Z,0.62
2019-01-28T03:40:03.828Z,0.88
2019-01-28T03:41:08.488Z,0.50
2019-01-28T03:42:13.012Z,0.80
2019-01-28T03:43:17.547Z,1.65
2019-01-28T03:44:22.194Z,0.42
2019-01-28T03:45:26.694Z,0.50
2019-01-28T03:46:31.191Z,0.70
2019-01-28T03:47:35.669Z,0.50
2019-01-28T03:48:40.862Z,0.50
2019-01-28T03:49:45.465Z,0.53
2019-01-28T03:50:49.973Z,2.20
2019-01-28T03:51:54.643Z,0.53
2019-01-28T03:52:59.213Z,0.50
2019-01-28T03:54:03.691Z,0.57
2019-01-28T03:55:10.640Z,0.60
2019-01-28T03:56:15.128Z,0.57
2019-01-28T03:57:19.707Z,0.50
2019-01-28T03:58:24.199Z,0.53
2019-01-28T03:59:28.783Z,0.60
2019-01-28T04:00:33.498Z,0.93
2019-01-28T04:01:38.101Z,0.60
2019-01-28T04:02:42.694Z,0.50
2019-01-28T04:03:47.276Z,0.78
2019-01-28T04:04:52.070Z,1.60
2019-01-28T04:05:56.694Z,0.80
2019-01-28T04:07:01.205Z,0.60
2019-01-28T04:08:05.724Z,0.65
2019-01-28T04:09:10.349Z,0.70
2019-01-28T04:10:26.649Z,1.50
2019-01-28T04:11:31.815Z,0.75
2019-01-28T04:12:36.319Z,0.73
2019-01-28T04:13:40.819Z,0.60
2019-01-28T04:14:46.583Z,1.37
2019-01-28T04:15:51.074Z,0.90
2019-01-28T04:16:55.608Z,0.55
2019-01-28T04:18:00.140Z,0.45
2019-01-28T04:19:04.946Z,0.80
2019-01-28T04:20:12.082Z,1.15
2019-01-28T04:21:16.602Z,0.93
2019-01-28T04:22:21.172Z,0.72
2019-01-28T04:23:25.646Z,1.10
2019-01-28T04:24:30.222Z,0.93
2019-01-28T04:25:34.762Z,0.53
2019-01-28T04:26:40.011Z,0.93
2019-01-28T04:27:44.660Z,1.17
2019-01-28T04:28:50.500Z,0.80
2019-01-28T04:29:55.015Z,0.50
2019-01-28T04:31:00.289Z,1.60
2019-01-28T04:32:04.988Z,1.10
2019-01-28T04:33:09.463Z,1.07
2019-01-28T04:34:14.000Z,0.80
2019-01-28T04:35:18.503Z,1.10
2019-01-28T04:36:22.985Z,1.00
2019-01-28T04:37:27.483Z,1.20
2019-01-28T04:38:31.998Z,1.45
2019-01-28T04:39:36.519Z,1.47
2019-01-28T04:40:41.089Z,3.25
2019-01-28T04:41:45.670Z,1.85
2019-01-28T04:42:50.218Z,1.32
2019-01-28T04:43:55.969Z,1.10
2019-01-28T04:45:00.511Z,0.63
2019-01-28T04:46:05.075Z,1.43
2019-01-28T04:47:09.591Z,1.23
2019-01-28T04:48:14.077Z,1.87
2019-01-28T04:49:18.599Z,1.37
2019-01-28T04:50:23.115Z,1.17
2019-01-28T04:51:27.605Z,1.00
2019-01-28T04:52:32.086Z,1.43
2019-01-28T04:53:36.579Z,1.77
2019-01-28T04:54:41.088Z,2.03
2019-01-28T04:55:45.873Z,1.13
2019-01-28T04:56:50.393Z,1.65
2019-01-28T04:57:54.899Z,0.98
2019-01-28T04:58:59.418Z,1.00
2019-01-28T05:00:07.014Z,1.32
2019-01-28T05:01:13.174Z,2.87
2019-01-28T05:02:17.730Z,0.60
2019-01-28T05:03:22.312Z,1.20
2019-01-28T05:04:27.818Z,1.35
2019-01-28T05:05:32.318Z,1.03
2019-01-28T05:06:36.848Z,0.53
2019-01-28T05:07:41.317Z,0.63
2019-01-28T05:08:45.807Z,1.30
2019-01-28T05:09:50.285Z,0.60
2019-01-28T05:10:54.801Z,0.67
2019-01-28T05:11:59.293Z,1.27
2019-01-28T05:13:04.965Z,0.77
2019-01-28T05:14:09.601Z,1.27
2019-01-28T05:15:17.102Z,0.70
2019-01-28T05:16:21.750Z,0.57
2019-01-28T05:17:26.311Z,0.75
2019-01-28T05:18:30.827Z,0.60
2019-01-28T05:19:35.334Z,0.70
2019-01-28T05:20:39.849Z,1.95
2019-01-28T05:21:44.460Z,0.95
2019-01-28T05:22:49.050Z,1.27
2019-01-28T05:23:53.620Z,0.50
2019-01-28T05:24:58.163Z,2.25
2019-01-28T05:26:02.662Z,0.73
2019-01-28T05:27:08.730Z,0.82
2019-01-28T05:28:13.222Z,0.70
2019-01-28T05:29:17.738Z,0.65
2019-01-28T05:30:25.384Z,0.60
2019-01-28T05:31:30.176Z,0.60
2019-01-28T05:32:34.728Z,0.60
2019-01-28T05:33:39.236Z,1.00
2019-01-28T05:34:45.253Z,0.40
2019-01-28T05:35:49.788Z,0.50
2019-01-28T05:36:54.310Z,0.70
2019-01-28T05:37:58.911Z,0.50
2019-01-28T05:39:06.845Z,0.60
2019-01-28T05:40:16.625Z,0.50
2019-01-28T05:41:21.119Z,0.77
2019-01-28T05:42:31.808Z,0.80
2019-01-28T05:43:39.439Z,0.80
2019-01-28T05:44:43.925Z,0.50
2019-01-28T05:45:49.423Z,1.10
2019-01-28T05:46:53.942Z,0.60
2019-01-28T05:47:58.429Z,1.93
2019-01-28T05:49:02.982Z,0.60
2019-01-28T05:50:10.420Z,1.30
2019-01-28T05:51:14.994Z,2.12
2019-01-28T05:52:19.537Z,0.50
2019-01-28T05:53:24.405Z,0.62
2019-01-28T05:54:28.945Z,0.57
2019-01-28T05:55:33.475Z,0.80
2019-01-28T05:56:39.234Z,0.77
2019-01-28T05:57:43.706Z,0.87
2019-01-28T05:58:49.074Z,1.37
2019-01-28T05:59:55.108Z,1.00
2019-01-28T06:00:59.666Z,0.50
2019-01-28T06:02:04.567Z,1.03
2019-01-28T06:03:09.202Z,0.73
2019-01-28T06:04:13.728Z,0.70
2019-01-28T06:05:18.331Z,0.50
2019-01-28T06:06:24.330Z,0.80
2019-01-28T06:07:29.094Z,1.77
2019-01-28T06:08:33.609Z,0.75
2019-01-28T06:09:38.976Z,3.90
2019-01-28T06:10:43.524Z,0.50
2019-01-28T06:11:48.039Z,0.90
2019-01-28T06:12:52.551Z,0.60
2019-01-28T06:13:57.068Z,1.20
2019-01-28T06:15:01.587Z,0.30
2019-01-28T06:16:06.112Z,0.30
2019-01-28T06:17:10.631Z,0.63
2019-01-28T06:18:15.116Z,0.53
2019-01-28T06:19:20.219Z,0.50
2019-01-28T06:20:27.606Z,0.50
2019-01-28T06:21:32.183Z,0.70
2019-01-28T06:22:37.731Z,0.77
2019-01-28T06:23:42.215Z,0.87
2019-01-28T06:24:47.741Z,1.05
2019-01-28T06:25:52.346Z,0.75
2019-01-28T06:26:56.892Z,1.17
2019-01-28T06:28:01.450Z,0.73
2019-01-28T06:29:06.900Z,1.07
2019-01-28T06:30:15.647Z,1.10
2019-01-28T06:31:20.705Z,0.50
2019-01-28T06:32:25.267Z,0.47
2019-01-28T06:33:29.811Z,0.93
2019-01-28T06:34:34.306Z,1.40
2019-01-28T06:35:38.868Z,0.93
2019-01-28T06:36:43.351Z,0.83
2019-01-28T06:37:47.856Z,0.93
2019-01-28T06:38:52.457Z,0.67
2019-01-28T06:39:56.969Z,1.43
2019-01-28T06:41:01.538Z,1.50
2019-01-28T06:42:07.666Z,0.90
2019-01-28T06:43:12.243Z,0.80
2019-01-28T06:44:17.360Z,0.90
2019-01-28T06:45:27.048Z,0.83
2019-01-28T06:46:31.614Z,0.50
2019-01-28T06:47:36.212Z,0.62
2019-01-28T06:48:40.717Z,0.65
2019-01-28T06:49:45.248Z,0.30
2019-01-28T06:50:49.780Z,1.65
2019-01-28T06:51:54.357Z,0.60
2019-01-28T06:52:58.887Z,0.82
2019-01-28T06:54:03.395Z,0.75
2019-01-28T06:55:10.175Z,1.40
2019-01-28T06:56:14.749Z,0.80
2019-01-28T06:57:20.370Z,0.72
2019-01-28T06:58:24.899Z,1.03
2019-01-28T06:59:30.438Z,1.12
2019-01-28T07:00:36.294Z,0.50
2019-01-28T07:01:41.098Z,0.50
2019-01-28T07:02:46.616Z,1.00
2019-01-28T07:03:51.146Z,1.37
2019-01-28T07:04:55.692Z,0.60
2019-01-28T07:06:00.198Z,1.10
2019-01-28T07:07:04.760Z,1.90
2019-01-28T07:08:10.084Z,1.25
2019-01-28T07:09:14.605Z,1.32
2019-01-28T07:10:20.686Z,0.70
2019-01-28T07:11:25.269Z,1.57
2019-01-28T07:12:29.791Z,1.00
2019-01-28T07:13:34.285Z,1.10
2019-01-28T07:14:38.834Z,0.70
2019-01-28T07:15:43.355Z,1.02
2019-01-28T07:16:48.363Z,1.27
2019-01-28T07:17:54.949Z,1.40
2019-01-28T07:19:00.082Z,1.33
2019-01-28T07:20:09.942Z,0.87
2019-01-28T07:21:14.429Z,0.80
2019-01-28T07:22:18.925Z,0.70
2019-01-28T07:23:23.431Z,1.03
2019-01-28T07:24:27.943Z,1.50
2019-01-28T07:25:32.479Z,0.83
2019-01-28T07:26:37.027Z,2.05
2019-01-28T07:27:41.568Z,1.27
2019-01-28T07:28:46.089Z,1.02
2019-01-28T07:29:50.610Z,1.30
2019-01-28T07:30:56.816Z,0.70
2019-01-28T07:32:01.332Z,1.27
2019-01-28T07:33:06.088Z,2.03
2019-01-28T07:34:10.586Z,0.97
2019-01-28T07:35:15.322Z,1.50
2019-01-28T07:36:19.818Z,1.25
2019-01-28T07:37:25.824Z,1.10
2019-01-28T07:38:30.356Z,1.57
2019-01-28T07:39:34.809Z,1.50
2019-01-28T07:40:41.600Z,1.30
2019-01-28T07:41:46.271Z,1.07
2019-01-28T07:42:50.878Z,1.23
2019-01-28T07:43:55.442Z,0.68
2019-01-28T07:44:59.949Z,1.50
2019-01-28T07:46:04.807Z,1.05
2019-01-28T07:47:09.477Z,1.27
2019-01-28T07:48:13.986Z,2.17
2019-01-28T07:49:18.559Z,1.05
2019-01-28T07:50:25.541Z,1.47
2019-01-28T07:51:30.259Z,2.70
2019-01-28T07:52:34.796Z,1.17
2019-01-28T07:53:39.346Z,1.05
2019-01-28T07:54:43.841Z,1.63
2019-01-28T07:55:48.338Z,1.53
2019-01-28T07:56:53.026Z,1.13
2019-01-28T07:57:57.628Z,1.57
2019-01-28T07:59:04.024Z,1.33
2019-01-28T08:00:19.342Z,1.10
2019-01-28T08:01:23.712Z,1.60
2019-01-28T08:02:28.330Z,1.32
2019-01-28T08:03:33.116Z,1.75
2019-01-28T08:04:37.770Z,0.85
2019-01-28T08:05:42.450Z,1.67
2019-01-28T08:06:47.038Z,3.33
2019-01-28T08:07:51.534Z,1.82
2019-01-28T08:08:56.040Z,1.73
2019-01-28T08:10:00.550Z,1.93
2019-01-28T08:11:05.225Z,2.53
2019-01-28T08:12:09.789Z,1.70
2019-01-28T08:13:14.283Z,1.60
2019-01-28T08:14:18.803Z,1.47
2019-01-28T08:15:25.835Z,1.43
2019-01-28T08:16:30.483Z,1.37
2019-01-28T08:17:35.060Z,1.52
2019-01-28T08:18:39.547Z,1.27
2019-01-28T08:19:45.059Z,1.30
2019-01-28T08:20:49.550Z,2.43
2019-01-28T08:21:54.104Z,0.82
2019-01-28T08:22:58.620Z,3.08
2019-01-28T08:24:03.129Z,3.37
2019-01-28T08:25:10.346Z,2.50
2019-01-28T08:26:14.914Z,3.30
2019-01-28T08:27:19.613Z,1.30
2019-01-28T08:28:24.170Z,1.98
2019-01-28T08:29:28.829Z,1.13
2019-01-28T08:30:35.439Z,1.50
2019-01-28T08:31:39.983Z,1.35
2019-01-28T08:32:44.493Z,3.13
2019-01-28T08:33:49.074Z,1.37
2019-01-28T08:34:53.630Z,2.20
2019-01-28T08:35:59.994Z,1.50
2019-01-28T08:37:04.699Z,0.97
2019-01-28T08:38:10.336Z,1.30
2019-01-28T08:39:14.968Z,2.30
2019-01-28T08:40:21.316Z,1.43
2019-01-28T08:41:25.908Z,1.40
2019-01-28T08:42:33.534Z,1.17
2019-01-28T08:43:38.154Z,1.65
2019-01-28T08:44:42.681Z,2.15
2019-01-28T08:45:47.281Z,2.25
2019-01-28T08:46:51.830Z,1.85
2019-01-28T08:47:57.924Z,1.33
2019-01-28T08:49:02.454Z,3.20
2019-01-28T08:50:15.980Z,0.80
2019-01-28T08:51:23.610Z,1.80
2019-01-28T08:52:30.931Z,1.97
2019-01-28T08:53:35.444Z,2.10
2019-01-28T08:54:41.688Z,1.67
2019-01-28T08:55:46.283Z,3.00
2019-01-28T08:56:51.016Z,2.42
2019-01-28T08:57:58.241Z,2.02
2019-01-28T08:59:02.910Z,1.98
2019-01-28T09:00:16.245Z,1.02
2019-01-28T09:01:20.831Z,2.75
2019-01-28T09:02:25.596Z,1.20
2019-01-28T09:03:30.111Z,2.00
2019-01-28T09:04:34.604Z,1.13
2019-01-28T09:05:39.257Z,1.22
2019-01-28T09:06:43.748Z,2.07
2019-01-28T09:07:48.362Z,1.40
2019-01-28T09:08:52.990Z,1.27
2019-01-28T09:09:57.575Z,1.00
2019-01-28T09:11:03.974Z,1.52
2019-01-28T09:12:08.979Z,1.60
2019-01-28T09:13:13.568Z,1.55
2019-01-28T09:14:19.061Z,1.30
2019-01-28T09:15:24.762Z,1.52
2019-01-28T09:16:30.942Z,1.35
2019-01-28T09:17:35.600Z,2.50
2019-01-28T09:18:40.113Z,1.13
2019-01-28T09:19:47.679Z,2.13
2019-01-28T09:20:52.251Z,0.97
2019-01-28T09:21:56.948Z,3.33
2019-01-28T09:23:01.457Z,2.57
2019-01-28T09:24:07.725Z,1.00
2019-01-28T09:25:14.232Z,1.47
2019-01-28T09:26:18.791Z,3.60
2019-01-28T09:27:25.625Z,2.60
2019-01-28T09:28:30.182Z,0.70
2019-01-28T09:29:36.378Z,2.03
2019-01-28T09:30:40.968Z,1.85
2019-01-28T09:31:45.512Z,1.12
2019-01-28T09:32:50.096Z,0.70
2019-01-28T09:33:54.599Z,3.42
2019-01-28T09:34:59.112Z,1.42
2019-01-28T09:36:03.703Z,3.90
2019-01-28T09:37:08.197Z,3.43
2019-01-28T09:38:12.815Z,2.08
2019-01-28T09:39:17.548Z,2.47
2019-01-28T09:40:24.201Z,1.20
2019-01-28T09:41:29.257Z,1.93
2019-01-28T09:42:33.774Z,1.35
2019-01-28T09:43:38.285Z,1.17
2019-01-28T09:44:42.831Z,2.57
2019-01-28T09:45:47.400Z,1.25
2019-01-28T09:46:51.983Z,1.53
2019-01-28T09:47:56.730Z,1.10
2019-01-28T09:49:01.252Z,1.87
2019-01-28T09:50:08.865Z,1.10
2019-01-28T09:51:13.462Z,2.12
2019-01-28T09:52:17.967Z,2.12
2019-01-28T09:53:22.692Z,1.00
2019-01-28T09:54:27.347Z,0.82
2019-01-28T09:55:31.902Z,0.98
2019-01-28T09:56:37.455Z,1.52
2019-01-28T09:57:44.096Z,1.00
2019-01-28T09:58:48.641Z,3.93
2019-01-28T09:59:53.330Z,1.93
2019-01-28T10:00:57.875Z,1.10
2019-01-28T10:02:02.406Z,1.47
2019-01-28T10:03:07.267Z,1.23
2019-01-28T10:04:11.753Z,3.07
2019-01-28T10:05:19.989Z,1.40
2019-01-28T10:06:24.611Z,1.80
2019-01-28T10:07:29.152Z,2.60
2019-01-28T10:08:33.647Z,1.87
2019-01-28T10:09:38.176Z,0.82
2019-01-28T10:10:42.920Z,3.00
2019-01-28T10:11:47.488Z,2.80
2019-01-28T10:12:52.093Z,2.72
2019-01-28T10:13:56.640Z,2.05
2019-01-28T10:15:01.233Z,1.45
2019-01-28T10:16:05.862Z,0.60
2019-01-28T10:17:11.007Z,0.88
2019-01-28T10:18:15.778Z,1.40
2019-01-28T10:19:20.256Z,2.00
2019-01-28T10:20:31.373Z,1.17
2019-01-28T10:21:35.977Z,1.20
2019-01-28T10:22:40.768Z,1.37
2019-01-28T10:23:45.298Z,1.55
2019-01-28T10:24:49.815Z,1.53
2019-01-28T10:25:57.749Z,0.70
2019-01-28T10:27:00.568Z,1.60
2019-01-28T10:28:05.497Z,1.40
2019-01-28T10:29:10.083Z,1.20
2019-01-28T10:30:20.235Z,2.27
2019-01-28T10:31:25.755Z,1.32
2019-01-28T10:32:35.985Z,1.00
2019-01-28T10:33:39.763Z,1.57
2019-01-28T10:34:44.040Z,1.13
2019-01-28T10:35:48.818Z,1.00
2019-01-28T10:36:54.991Z,2.53
2019-01-28T10:38:01.465Z,1.83
2019-01-28T10:39:09.084Z,0.60
2019-01-28T10:40:19.401Z,1.22
2019-01-28T10:41:24.007Z,0.97
2019-01-28T10:42:29.263Z,1.42
2019-01-28T10:43:33.788Z,1.73
2019-01-28T10:44:38.270Z,0.87
2019-01-28T10:45:45.128Z,0.75
2019-01-28T10:46:50.216Z,2.30
2019-01-28T10:48:00.495Z,2.60
2019-01-28T10:49:02.499Z,1.60
2019-01-28T10:50:22.306Z,1.25
2019-01-28T10:51:27.907Z,2.15
2019-01-28T10:52:32.416Z,0.87
2019-01-28T10:53:36.912Z,0.80
2019-01-28T10:54:41.406Z,1.67
2019-01-28T10:55:46.275Z,1.42
2019-01-28T10:56:50.814Z,1.33
2019-01-28T10:57:56.031Z,1.33
2019-01-28T10:59:00.607Z,1.53
2019-01-28T11:00:17.294Z,2.02
2019-01-28T11:01:22.035Z,1.92
2019-01-28T11:02:26.677Z,1.77
2019-01-28T11:03:31.452Z,1.23
2019-01-28T11:04:36.091Z,1.63
2019-01-28T11:05:40.695Z,2.17
2019-01-28T11:06:45.350Z,1.82
2019-01-28T11:07:49.921Z,1.85
2019-01-28T11:08:54.472Z,1.70
2019-01-28T11:09:59.195Z,1.87
2019-01-28T11:11:04.221Z,0.88
2019-01-28T11:12:08.921Z,1.40
2019-01-28T11:13:13.496Z,2.23
2019-01-28T11:14:17.989Z,2.60
2019-01-28T11:15:27.900Z,2.02
2019-01-28T11:16:33.031Z,1.77
2019-01-28T11:17:37.832Z,3.20
2019-01-28T11:18:42.684Z,1.90
2019-01-28T11:19:47.393Z,2.67
2019-01-28T11:20:52.068Z,0.90
2019-01-28T11:21:57.105Z,1.90
2019-01-28T11:23:01.978Z,1.07
2019-01-28T11:24:07.279Z,2.13
2019-01-28T11:25:14.909Z,1.90
2019-01-28T11:26:21.136Z,1.30
2019-01-28T11:27:25.976Z,1.50
2019-01-28T11:28:30.686Z,3.47
2019-01-28T11:29:35.247Z,1.67
2019-01-28T11:30:44.469Z,3.65
2019-01-28T11:31:49.070Z,2.00
2019-01-28T11:32:53.720Z,1.50
2019-01-28T11:33:59.119Z,1.55
2019-01-28T11:35:05.437Z,1.85
2019-01-28T11:36:11.058Z,2.47
2019-01-28T11:37:15.593Z,1.92
2019-01-28T11:38:22.061Z,2.42
2019-01-28T11:39:26.735Z,1.52
2019-01-28T11:40:31.266Z,3.40
2019-01-28T11:41:35.970Z,3.85
2019-01-28T11:42:40.497Z,3.17
2019-01-28T11:43:45.022Z,1.87
2019-01-28T11:44:49.598Z,1.67
2019-01-28T11:45:57.192Z,3.08
2019-01-28T11:47:01.816Z,2.00
2019-01-28T11:48:07.978Z,2.47
2019-01-28T11:49:12.638Z,3.35
2019-01-28T11:50:18.250Z,1.82
2019-01-28T11:51:22.733Z,2.17
2019-01-28T11:52:27.665Z,2.80
2019-01-28T11:53:32.311Z,3.12
2019-01-28T11:54:36.866Z,3.30
2019-01-28T11:55:41.558Z,2.75
2019-01-28T11:56:46.433Z,1.72
2019-01-28T11:57:51.128Z,1.10
2019-01-28T11:58:56.098Z,1.77
2019-01-28T12:00:00.645Z,2.87
2019-01-28T12:01:07.214Z,2.33
2019-01-28T12:02:11.881Z,2.40
2019-01-28T12:03:16.485Z,3.15
2019-01-28T12:04:21.079Z,3.77
2019-01-28T12:05:25.695Z,4.50
2019-01-28T12:06:30.382Z,2.20
2019-01-28T12:07:35.006Z,3.93
2019-01-28T12:08:39.511Z,1.70
2019-01-28T12:09:44.045Z,1.97
2019-01-28T12:10:48.542Z,4.07
2019-01-28T12:11:53.071Z,4.03
2019-01-28T12:12:57.793Z,4.03
2019-01-28T12:14:02.357Z,2.60
2019-01-28T12:15:09.965Z,4.35
2019-01-28T12:16:14.577Z,3.72
2019-01-28T12:17:19.237Z,2.80
2019-01-28T12:18:23.750Z,3.22
2019-01-28T12:19:28.244Z,4.10
2019-01-28T12:20:32.762Z,2.50
2019-01-28T12:21:38.485Z,2.95
2019-01-28T12:22:43.054Z,2.67
2019-01-28T12:23:47.743Z,4.37
2019-01-28T12:24:52.248Z,3.17
2019-01-28T12:25:56.760Z,6.10
2019-01-28T12:27:01.273Z,4.72
2019-01-28T12:28:06.298Z,6.10
2019-01-28T12:29:11.712Z,4.30
2019-01-28T12:30:30.535Z,3.23
2019-01-28T12:31:36.847Z,2.60
2019-01-28T12:32:41.512Z,2.70
2019-01-28T12:33:46.133Z,3.87
2019-01-28T12:34:50.919Z,5.90
2019-01-28T12:35:55.499Z,3.33
2019-01-28T12:37:00.052Z,5.40
2019-01-28T12:38:05.196Z,2.43
2019-01-28T12:39:09.962Z,3.72
2019-01-28T12:40:17.106Z,3.25
2019-01-28T12:41:21.609Z,3.97
2019-01-28T12:42:27.823Z,3.63
2019-01-28T12:43:32.321Z,2.30
2019-01-28T12:44:36.837Z,4.37
2019-01-28T12:45:41.427Z,2.55
2019-01-28T12:46:46.264Z,2.95
2019-01-28T12:47:51.129Z,2.10
2019-01-28T12:48:55.729Z,2.75
2019-01-28T12:50:00.437Z,3.25
2019-01-28T12:51:05.399Z,4.83
2019-01-28T12:52:10.007Z,2.92
2019-01-28T12:53:14.712Z,3.22
2019-01-28T12:54:19.351Z,2.42
2019-01-28T12:55:25.238Z,4.00
2019-01-28T12:56:29.755Z,3.57
2019-01-28T12:57:34.395Z,4.17
2019-01-28T12:58:38.944Z,2.72
2019-01-28T12:59:43.495Z,3.50
2019-01-28T13:00:50.158Z,3.33
2019-01-28T13:01:54.820Z,3.10
2019-01-28T13:02:59.452Z,3.00
2019-01-28T13:04:04.410Z,2.80
2019-01-28T13:05:11.764Z,2.92
2019-01-28T13:06:16.322Z,2.97
2019-01-28T13:07:20.922Z,2.25
2019-01-28T13:08:25.597Z,1.67
2019-01-28T13:09:30.113Z,2.33
2019-01-28T13:10:34.793Z,2.62
2019-01-28T13:11:41.588Z,4.30
2019-01-28T13:12:46.082Z,2.77
2019-01-28T13:13:50.606Z,5.03
2019-01-28T13:14:55.122Z,3.67
2019-01-28T13:15:59.751Z,3.75
2019-01-28T13:17:04.803Z,1.50
2019-01-28T13:18:09.419Z,2.80
2019-01-28T13:19:13.941Z,3.23
2019-01-28T13:20:19.035Z,4.00
2019-01-28T13:21:25.085Z,4.63
2019-01-28T13:22:29.597Z,2.00
2019-01-28T13:23:34.460Z,2.67
2019-01-28T13:24:39.130Z,2.72
2019-01-28T13:25:43.780Z,3.30
2019-01-28T13:26:48.639Z,1.93
2019-01-28T13:27:53.210Z,2.63
2019-01-28T13:28:58.032Z,3.52
2019-01-28T13:30:02.594Z,2.27
2019-01-28T13:31:07.101Z,1.98
2019-01-28T13:32:11.623Z,2.87
2019-01-28T13:33:17.618Z,2.95
2019-01-28T13:34:22.139Z,2.47
2019-01-28T13:35:26.681Z,2.58
2019-01-28T13:36:31.183Z,2.43
2019-01-28T13:37:35.786Z,1.70
2019-01-28T13:38:40.379Z,2.13
2019-01-28T13:39:44.860Z,2.77
2019-01-28T13:40:49.353Z,3.23
2019-01-28T13:41:53.901Z,1.82
2019-01-28T13:42:58.499Z,2.22
2019-01-28T13:44:03.153Z,4.03
2019-01-28T13:45:10.988Z,4.20
2019-01-28T13:46:15.494Z,2.53
2019-01-28T13:47:20.023Z,2.10
2019-01-28T13:48:24.512Z,1.57
2019-01-28T13:49:29.012Z,2.93
2019-01-28T13:50:33.560Z,2.90
2019-01-28T13:51:38.375Z,2.87
2019-01-28T13:52:43.081Z,2.40
2019-01-28T13:53:47.683Z,2.60
2019-01-28T13:54:52.276Z,2.70
2019-01-28T13:55:56.830Z,2.27
2019-01-28T13:57:01.361Z,2.92
2019-01-28T13:58:06.230Z,2.53
2019-01-28T13:59:16.091Z,1.47
2019-01-28T14:00:20.989Z,2.50
2019-01-28T14:01:25.558Z,4.73
2019-01-28T14:02:30.068Z,3.10
2019-01-28T14:03:36.536Z,4.33
2019-01-28T14:04:41.037Z,1.77
2019-01-28T14:05:45.704Z,5.37
2019-01-28T14:06:50.327Z,2.62
2019-01-28T14:07:55.743Z,2.20
2019-01-28T14:09:00.322Z,2.67
2019-01-28T14:10:08.175Z,1.25
2019-01-28T14:11:12.771Z,3.83
2019-01-28T14:12:17.389Z,2.92
2019-01-28T14:13:21.982Z,1.85
2019-01-28T14:14:26.540Z,1.72
2019-01-28T14:15:38.767Z,2.33
2019-01-28T14:16:43.435Z,1.80
2019-01-28T14:17:48.021Z,3.33
2019-01-28T14:18:52.600Z,2.95
2019-01-28T14:19:57.102Z,2.70
2019-01-28T14:21:01.772Z,2.83
2019-01-28T14:22:06.356Z,3.20
2019-01-28T14:23:11.128Z,1.52
2019-01-28T14:24:16.651Z,2.20
2019-01-28T14:25:21.322Z,1.93
2019-01-28T14:26:25.943Z,1.62